Time;durP1;ratioP1;P1;durP2;ratioP2;P2;SDS_P1;SDS_P2;PMS_P1;PMS_P2;Temp;Humidity;BMP_temperature;BMP_pressure;BME280_temperature;BME280_humidity;BME280_pressure;Samples;Min_cycle;Max_cycle;Signal;HPM_P1;HPM_P2
2023/01/20 00:03:08;;;;;;;15.87;10.77;;;1.00;99.90;;;;;;10336787;28;20237;-70
2023/01/20 00:08:08;;;;;;;17.40;11.50;;;1.00;99.90;;;;;;10350305;28;20306;-69
2023/01/20 00:13:09;;;;;;;13.37;10.33;;;0.90;99.90;;;;;;10352866;28;20213;-70
2023/01/20 00:18:09;;;;;;;18.13;10.70;;;0.90;99.90;;;;;;10356420;28;20213;-69
2023/01/20 00:23:10;;;;;;;13.27;10.27;;;0.90;99.90;;;;;;10346010;28;20273;-70
2023/01/20 00:28:10;;;;;;;13.17;10.37;;;0.90;99.90;;;;;;10343900;28;20317;-70
2023/01/20 00:33:11;;;;;;;14.97;11.57;;;0.90;99.90;;;;;;10345012;28;20288;-70
2023/01/20 00:38:11;;;;;;;15.70;11.60;;;0.80;99.90;;;;;;10343653;28;20271;-70
2023/01/20 00:43:12;;;;;;;16.37;11.67;;;0.80;99.90;;;;;;10334604;28;20225;-70
2023/01/20 00:48:13;;;;;;;13.70;9.67;;;0.80;99.90;;;;;;10336624;28;20302;-70
2023/01/20 00:53:13;;;;;;;13.87;11.03;;;0.70;99.90;;;;;;10351810;28;20217;-70
2023/01/20 00:58:14;;;;;;;12.37;9.30;;;0.70;99.90;;;;;;10352249;28;20351;-70
2023/01/20 01:03:15;;;;;;;16.77;10.13;;;0.60;99.90;;;;;;10351553;28;20758;-71
2023/01/20 01:08:16;;;;;;;16.07;10.87;;;0.50;99.90;;;;;;10352423;28;20226;-70
2023/01/20 01:13:16;;;;;;;14.00;9.70;;;0.50;99.90;;;;;;10351667;28;20221;-70
2023/01/20 01:18:17;;;;;;;14.00;10.13;;;0.40;99.90;;;;;;10355246;28;20271;-69
2023/01/20 01:23:17;;;;;;;13.07;9.60;;;0.40;99.90;;;;;;10361500;28;20324;-69
2023/01/20 01:28:18;;;;;;;13.43;10.43;;;0.30;99.90;;;;;;10353829;28;20253;-71
2023/01/20 01:33:18;;;;;;;14.17;10.40;;;0.30;99.90;;;;;;10350481;28;20226;-71
2023/01/20 01:38:19;;;;;;;14.70;10.97;;;0.20;99.90;;;;;;10350544;28;20231;-70
2023/01/20 01:43:28;;;;;;;12.67;9.47;;;0.20;99.90;;;;;;10340458;28;20247;-69
2023/01/20 01:48:41;;;;;;;16.20;10.20;;;0.20;99.90;;;;;;10353226;28;20244;-69
2023/01/20 01:53:52;;;;;;;14.90;9.90;;;0.10;99.90;;;;;;10354258;28;20218;-70
2023/01/20 01:58:55;;;;;;;15.73;11.20;;;0.10;99.90;;;;;;10330149;28;20224;-70
2023/01/20 02:04:19;;;;;;;16.77;11.43;;;0.10;99.90;;;;;;10328516;28;20230;-72
2023/01/20 02:09:20;;;;;;;13.93;10.77;;;0.10;99.90;;;;;;10344384;28;20221;-72
2023/01/20 02:14:29;;;;;;;16.00;11.50;;;0.10;99.90;;;;;;10348147;28;20275;-71
2023/01/20 02:19:56;;;;;;;17.73;11.70;;;0.10;99.90;;;;;;10338170;28;20222;-71
2023/01/20 02:25:14;;;;;;;17.93;11.73;;;0.10;99.90;;;;;;10352521;28;20233;-72
2023/01/20 02:30:31;;;;;;;15.40;11.03;;;0.10;99.90;;;;;;10349428;28;20231;-72
2023/01/20 02:35:48;;;;;;;17.43;12.67;;;0.10;99.90;;;;;;10355121;28;20677;-72
2023/01/20 02:41:10;;;;;;;15.93;11.53;;;0.10;99.90;;;;;;10327831;28;20641;-73
2023/01/20 02:46:22;;;;;;;16.17;12.23;;;0.20;99.90;;;;;;10332017;28;20288;-73
2023/01/20 02:51:28;;;;;;;16.57;11.87;;;0.30;99.90;;;;;;10351443;28;20316;-71
2023/01/20 02:56:30;;;;;;;17.50;11.93;;;0.40;99.90;;;;;;10346696;28;20229;-71
2023/01/20 03:01:56;;;;;;;14.90;11.57;;;0.50;99.90;;;;;;10349736;28;20240;-71
2023/01/20 03:06:58;;;;;;;17.33;11.50;;;0.60;99.90;;;;;;10345656;28;20233;-70
2023/01/20 03:12:09;;;;;;;15.50;11.20;;;0.60;99.90;;;;;;10349747;28;20229;-72
2023/01/20 03:17:13;;;;;;;16.20;11.40;;;0.60;99.90;;;;;;10345077;28;20229;-71
2023/01/20 03:22:14;;;;;;;15.47;11.00;;;0.60;99.90;;;;;;10357990;28;20284;-69
2023/01/20 03:27:15;;;;;;;15.13;11.23;;;0.50;99.90;;;;;;10328864;28;20681;-70
2023/01/20 03:32:25;;;;;;;16.63;11.07;;;0.50;99.90;;;;;;10342829;28;20217;-70
2023/01/20 03:37:26;;;;;;;13.20;9.93;;;0.40;99.90;;;;;;10327450;28;20296;-70
2023/01/20 03:42:34;;;;;;;13.73;10.40;;;0.30;99.90;;;;;;10330264;28;20268;-70
2023/01/20 03:47:44;;;;;;;16.10;12.23;;;0.30;99.90;;;;;;10343288;28;20308;-72
2023/01/20 03:52:56;;;;;;;15.93;11.00;;;0.20;99.90;;;;;;10333535;28;20297;-70
2023/01/20 03:57:57;;;;;;;12.53;9.93;;;0.10;99.90;;;;;;10348715;28;20221;-71
2023/01/20 04:03:00;;;;;;;15.53;10.33;;;0.20;99.90;;;;;;10348448;28;20242;-69
2023/01/20 04:08:04;;;;;;;14.90;10.53;;;0.10;99.90;;;;;;10358292;28;20260;-70
2023/01/20 04:13:05;;;;;;;14.37;10.70;;;0.10;99.90;;;;;;10347662;28;20306;-69
2023/01/20 04:18:18;;;;;;;15.97;11.63;;;0.00;99.90;;;;;;10349660;28;20304;-69
2023/01/20 04:23:33;;;;;;;18.80;11.60;;;0.00;99.90;;;;;;10354343;28;20249;-69
2023/01/20 04:28:33;;;;;;;16.17;11.50;;;0.00;99.90;;;;;;10352982;28;20229;-69
2023/01/20 04:33:37;;;;;;;15.13;11.17;;;0.00;99.90;;;;;;10357696;28;20292;-71
2023/01/20 04:38:38;;;;;;;16.13;11.20;;;0.00;99.90;;;;;;10356744;28;20233;-71
2023/01/20 04:43:43;;;;;;;15.63;11.60;;;-0.10;99.90;;;;;;10350787;28;20237;-71
2023/01/20 04:48:45;;;;;;;14.97;10.97;;;-0.10;99.90;;;;;;10339934;28;20715;-71
2023/01/20 04:53:45;;;;;;;15.73;11.87;;;-0.30;99.90;;;;;;10339891;28;20585;-71
2023/01/20 04:58:47;;;;;;;17.80;11.70;;;-0.30;99.90;;;;;;10340033;28;20230;-71
2023/01/20 05:03:50;;;;;;;15.00;10.90;;;-0.30;99.90;;;;;;10349145;28;20268;-72
2023/01/20 05:08:51;;;;;;;15.33;10.93;;;-0.40;99.90;;;;;;10339486;28;20313;-70
2023/01/20 05:13:52;;;;;;;17.03;11.47;;;-0.50;99.90;;;;;;10343183;28;20836;-70
2023/01/20 05:18:53;;;;;;;18.37;11.57;;;-0.60;99.90;;;;;;10355952;28;20225;-69
2023/01/20 05:23:55;;;;;;;16.53;11.17;;;-0.60;99.90;;;;;;10351478;28;20924;-71
2023/01/20 05:28:55;;;;;;;22.27;12.67;;;-0.70;99.90;;;;;;10354283;28;20265;-73
2023/01/20 05:33:56;;;;;;;18.30;12.30;;;-0.60;99.90;;;;;;10354578;28;20218;-73
2023/01/20 05:39:00;;;;;;;23.90;13.43;;;-0.60;99.90;;;;;;10348953;28;20225;-71
2023/01/20 05:44:00;;;;;;;16.60;11.50;;;-0.70;99.90;;;;;;10354331;28;20239;-70
2023/01/20 05:49:01;;;;;;;17.23;11.00;;;-0.70;99.90;;;;;;10350471;28;20221;-74
2023/01/20 05:54:03;;;;;;;18.13;11.77;;;-0.80;99.90;;;;;;10356328;28;20248;-74
2023/01/20 05:59:05;;;;;;;21.17;14.20;;;-0.80;99.90;;;;;;10339113;28;20913;-73
2023/01/20 06:04:06;;;;;;;31.30;18.57;;;-0.80;99.90;;;;;;10355778;28;20252;-74
2023/01/20 06:09:06;;;;;;;25.83;16.33;;;-0.80;99.90;;;;;;10349092;28;20214;-67
2023/01/20 06:14:07;;;;;;;23.33;14.97;;;-0.80;99.90;;;;;;10360150;28;20276;-72
2023/01/20 06:19:07;;;;;;;24.67;15.37;;;-0.90;99.90;;;;;;10332778;28;20225;-71
2023/01/20 06:24:08;;;;;;;24.90;15.70;;;-0.90;99.90;;;;;;10327867;28;20600;-73
2023/01/20 06:29:09;;;;;;;20.57;13.53;;;-0.80;99.90;;;;;;10332701;28;20624;-70
2023/01/20 06:34:10;;;;;;;21.27;13.97;;;-0.70;99.90;;;;;;10346287;28;20221;-70
2023/01/20 06:39:11;;;;;;;21.70;14.90;;;-0.50;99.90;;;;;;10349705;28;20632;-70
2023/01/20 06:44:12;;;;;;;23.10;15.90;;;-0.50;99.90;;;;;;10347682;28;20231;-70
2023/01/20 06:49:12;;;;;;;24.83;15.30;;;-0.40;99.90;;;;;;10349042;28;20278;-70
2023/01/20 06:54:13;;;;;;;21.87;14.73;;;-0.30;99.90;;;;;;10346910;28;20232;-69
2023/01/20 06:59:13;;;;;;;23.83;14.13;;;-0.20;99.90;;;;;;10350198;28;20263;-67
2023/01/20 07:04:14;;;;;;;21.20;14.43;;;-0.20;99.90;;;;;;10350245;28;20287;-67
2023/01/20 07:09:14;;;;;;;19.70;13.70;;;-0.20;99.90;;;;;;10335969;28;20300;-67
2023/01/20 07:14:15;;;;;;;20.63;14.07;;;-0.10;99.90;;;;;;10329295;28;20237;-66
2023/01/20 07:19:16;;;;;;;18.83;13.47;;;0.00;99.90;;;;;;10327601;28;20270;-67
2023/01/20 07:24:16;;;;;;;21.43;14.63;;;0.00;99.90;;;;;;10346789;28;20237;-66
2023/01/20 07:29:17;;;;;;;26.20;17.27;;;0.20;99.90;;;;;;10343114;28;20232;-66
2023/01/20 07:34:18;;;;;;;21.83;15.20;;;0.20;99.90;;;;;;10341444;28;20222;-67
2023/01/20 07:39:19;;;;;;;20.47;13.90;;;0.30;99.90;;;;;;10332783;28;20592;-67
2023/01/20 07:44:19;;;;;;;17.70;12.63;;;0.30;99.90;;;;;;10345825;28;20225;-68
2023/01/20 07:49:20;;;;;;;22.90;14.77;;;0.40;99.90;;;;;;10352643;28;20744;-67
2023/01/20 07:54:20;;;;;;;23.07;15.47;;;0.60;99.90;;;;;;10346420;28;20220;-66
2023/01/20 07:59:21;;;;;;;19.53;13.63;;;0.90;99.90;;;;;;10349072;28;20229;-70
2023/01/20 08:04:22;;;;;;;18.23;13.00;;;1.10;99.90;;;;;;10346056;28;20688;-72
2023/01/20 08:09:22;;;;;;;18.03;13.07;;;1.40;99.90;;;;;;10356146;28;20704;-70
2023/01/20 08:14:23;;;;;;;17.37;13.07;;;1.60;99.90;;;;;;10357248;28;20253;-69
2023/01/20 08:19:27;;;;;;;17.00;11.87;;;1.60;99.90;;;;;;10362129;28;20217;-66
2023/01/20 08:24:27;;;;;;;21.30;12.03;;;1.70;99.90;;;;;;10351963;28;20226;-67
2023/01/20 08:29:30;;;;;;;17.93;12.00;;;1.80;99.90;;;;;;10353544;28;20210;-66
2023/01/20 08:34:30;;;;;;;16.23;12.13;;;1.90;99.90;;;;;;10347573;28;20304;-66
2023/01/20 08:39:31;;;;;;;15.17;11.60;;;2.10;99.90;;;;;;10339547;28;20230;-67
2023/01/20 08:44:31;;;;;;;16.50;12.17;;;2.20;99.90;;;;;;10354228;28;20311;-67
2023/01/20 08:49:33;;;;;;;15.60;11.97;;;2.30;99.90;;;;;;10339724;28;20255;-68
2023/01/20 08:54:33;;;;;;;16.23;11.90;;;2.60;99.90;;;;;;10354475;28;20217;-66
2023/01/20 08:59:34;;;;;;;16.23;11.70;;;3.00;99.90;;;;;;10340250;28;20329;-67
2023/01/20 09:04:36;;;;;;;17.50;12.20;;;3.20;99.90;;;;;;10338644;28;20232;-68
2023/01/20 09:09:37;;;;;;;16.33;11.90;;;3.40;99.90;;;;;;10353912;28;20639;-67
2023/01/20 09:14:38;;;;;;;16.70;12.53;;;3.60;99.90;;;;;;10356189;28;20251;-67
2023/01/20 09:19:39;;;;;;;15.57;12.33;;;3.70;99.90;;;;;;10355546;28;20251;-67
2023/01/20 09:24:39;;;;;;;17.60;13.13;;;3.60;99.90;;;;;;10347960;28;20225;-66
2023/01/20 09:29:40;;;;;;;18.83;13.90;;;3.50;99.90;;;;;;10353971;28;20267;-66
2023/01/20 09:34:41;;;;;;;15.00;11.30;;;3.40;99.90;;;;;;10349118;28;20312;-67
2023/01/20 09:45:36;;;;;;;15.70;10.37;;;11.90;99.90;;;;;;10347712;28;20248;-67
2023/01/20 09:56:15;;;;;;;12.70;10.50;;;16.80;79.20;;;;;;10349378;28;20220;-67
2023/01/20 10:01:38;;;;;;;12.60;10.83;;;18.20;66.00;;;;;;10365786;28;20227;-66
2023/01/20 10:06:45;;;;;;;11.37;9.90;;;18.50;59.70;;;;;;10365962;28;20247;-67
2023/01/20 10:11:47;;;;;;;11.07;9.90;;;18.70;58.90;;;;;;10367577;28;20345;-67
2023/01/20 10:16:54;;;;;;;11.50;10.23;;;18.80;56.20;;;;;;10367759;28;20227;-67
2023/01/20 10:22:35;;;;;;;12.67;10.70;;;17.80;56.90;;;;;;10342281;28;20230;-68
2023/01/20 10:27:43;;;;;;;10.87;9.77;;;15.90;61.50;;;;;;10367387;28;20313;-67
2023/01/20 10:32:59;;;;;;;13.20;10.40;;;16.10;63.10;;;;;;10366919;28;20648;-68
2023/01/20 10:38:05;;;;;;;12.53;9.53;;;17.50;59.40;;;;;;10356761;28;20264;-67
2023/01/20 10:43:16;;;;;;;10.70;8.83;;;18.00;56.00;;;;;;10364282;28;20235;-67
2023/01/20 10:48:33;;;;;;;11.27;9.00;;;19.00;54.30;;;;;;10363948;28;20276;-67
2023/01/20 10:53:46;;;;;;;9.47;8.20;;;20.60;51.50;;;;;;10365859;28;20219;-67
2023/01/20 10:58:47;;;;;;;9.77;8.70;;;21.20;48.50;;;;;;10359741;28;20219;-67
2023/01/20 11:03:48;;;;;;;12.33;9.17;;;20.70;48.00;;;;;;10347192;28;20720;-68
2023/01/20 11:08:48;;;;;;;9.97;8.23;;;20.90;47.90;;;;;;10365706;28;20251;-67
2023/01/20 11:13:51;;;;;;;10.03;7.83;;;20.90;47.20;;;;;;10365008;28;20694;-68
2023/01/20 11:18:55;;;;;;;10.93;7.83;;;21.90;46.80;;;;;;10365756;28;20252;-68
2023/01/20 11:23:57;;;;;;;8.23;7.40;;;22.10;44.70;;;;;;10365768;28;20231;-66
2023/01/20 11:29:09;;;;;;;14.30;8.80;;;21.90;42.60;;;;;;10364164;28;20222;-67
2023/01/20 11:34:26;;;;;;;7.93;6.73;;;18.30;48.10;;;;;;10363856;28;20219;-68
2023/01/20 11:39:35;;;;;;;10.37;8.00;;;14.60;54.90;;;;;;10364093;28;20225;-68
2023/01/20 11:44:46;;;;;;;10.47;8.60;;;11.40;65.40;;;;;;10360624;28;20257;-67
2023/01/20 11:50:07;;;;;;;15.20;9.60;;;9.50;75.40;;;;;;10346981;28;20213;-68
2023/01/20 11:55:17;;;;;;;15.60;10.93;;;8.40;81.60;;;;;;10363560;28;20251;-68
2023/01/20 12:00:18;;;;;;;11.47;9.83;;;7.80;88.40;;;;;;10343900;28;20199;-68
2023/01/20 12:05:32;;;;;;;17.57;12.37;;;7.60;91.00;;;;;;10360231;28;20708;-68
2023/01/20 12:10:36;;;;;;;16.13;11.30;;;7.30;93.30;;;;;;10364292;28;20218;-68
2023/01/20 12:15:51;;;;;;;13.83;10.03;;;6.90;94.70;;;;;;10363128;28;20230;-68
2023/01/20 12:21:00;;;;;;;14.33;10.57;;;7.10;97.50;;;;;;10364868;28;20605;-67
2023/01/20 12:26:03;;;;;;;14.50;11.03;;;7.10;98.30;;;;;;10362600;28;20247;-67
2023/01/20 12:31:07;;;;;;;17.43;11.67;;;6.80;99.90;;;;;;10360414;28;20262;-68
2023/01/20 12:36:25;;;;;;;13.13;10.07;;;6.60;99.90;;;;;;10364500;28;20724;-68
2023/01/20 12:41:46;;;;;;;14.77;10.97;;;6.60;99.90;;;;;;10364057;28;20229;-69
2023/01/20 12:47:43;;;;;;;13.67;10.07;;;6.60;99.90;;;;;;10368693;28;20214;-68
2023/01/20 12:53:19;;;;;;;13.27;10.20;;;6.70;99.90;;;;;;10245290;29;20271;-69
2023/01/20 12:59:03;;;;;;;13.63;9.97;;;6.60;99.90;;;;;;10353103;28;20213;-68
2023/01/20 13:04:47;;;;;;;13.83;9.60;;;6.40;99.90;;;;;;10364612;28;20289;-68
2023/01/20 13:09:55;;;;;;;13.07;9.97;;;6.10;99.90;;;;;;10370274;28;20244;-70
2023/01/20 13:15:21;;;;;;;18.00;11.70;;;5.90;99.90;;;;;;10362989;28;20806;-69
2023/01/20 13:20:26;;;;;;;13.63;10.07;;;5.80;99.90;;;;;;10370149;28;20574;-69
2023/01/20 13:25:27;;;;;;;14.77;9.50;;;6.00;99.90;;;;;;10368793;28;20312;-68
2023/01/20 13:30:38;;;;;;;10.57;9.10;;;6.00;99.90;;;;;;10367680;28;20214;-68
2023/01/20 13:35:44;;;;;;;11.27;8.87;;;5.90;99.90;;;;;;10364017;28;20711;-68
2023/01/20 13:40:46;;;;;;;12.20;8.77;;;5.80;99.90;;;;;;10368017;28;20699;-68
2023/01/20 13:45:47;;;;;;;14.23;9.10;;;5.70;99.90;;;;;;10351225;28;20222;-68
2023/01/20 13:50:49;;;;;;;12.50;8.83;;;5.70;99.90;;;;;;10370092;28;20711;-67
2023/01/20 13:55:57;;;;;;;12.00;8.20;;;5.50;99.90;;;;;;10344269;28;20331;-67
2023/01/20 14:01:01;;;;;;;15.00;9.30;;;5.40;99.90;;;;;;10364049;28;20261;-68
2023/01/20 14:06:09;;;;;;;12.57;8.77;;;5.30;99.90;;;;;;10367287;28;20225;-67
2023/01/20 14:11:20;;;;;;;13.03;8.90;;;5.10;99.90;;;;;;10367169;28;20610;-67
2023/01/20 14:16:29;;;;;;;11.53;8.47;;;5.10;99.90;;;;;;10364727;28;20228;-68
2023/01/20 14:21:39;;;;;;;12.57;8.27;;;5.10;99.90;;;;;;10368255;28;20237;-68
2023/01/20 14:26:39;;;;;;;13.60;8.10;;;5.20;99.90;;;;;;10365621;28;20208;-68
2023/01/20 14:31:41;;;;;;;11.43;7.80;;;5.20;99.90;;;;;;10350723;28;20672;-67
2023/01/20 14:36:42;;;;;;;12.77;6.70;;;5.20;99.90;;;;;;10355776;28;20218;-67
2023/01/20 14:41:51;;;;;;;12.00;7.37;;;5.30;99.90;;;;;;10366551;28;20294;-67
2023/01/20 14:46:57;;;;;;;11.53;6.67;;;5.40;99.90;;;;;;10367327;28;20217;-67
2023/01/20 14:51:58;;;;;;;14.03;7.73;;;5.40;99.90;;;;;;10366075;28;20807;-67
2023/01/20 14:57:11;;;;;;;11.97;8.10;;;5.50;99.90;;;;;;10365696;28;20225;-68
2023/01/20 15:02:26;;;;;;;8.27;6.10;;;5.40;99.90;;;;;;10364625;28;20237;-68
2023/01/20 15:07:28;;;;;;;12.50;6.70;;;5.30;99.90;;;;;;10347745;28;20229;-70
2023/01/20 15:12:50;;;;;;;9.53;6.67;;;5.20;99.90;;;;;;10364090;28;20673;-70
2023/01/20 15:18:17;;;;;;;8.20;6.30;;;5.00;99.90;;;;;;10340887;28;20797;-69
2023/01/20 15:23:31;;;;;;;8.43;6.00;;;4.90;99.90;;;;;;10353239;28;20232;-70
2023/01/20 15:28:42;;;;;;;11.27;6.83;;;4.70;99.90;;;;;;10366584;28;20579;-70
2023/01/20 15:33:43;;;;;;;9.10;6.50;;;4.60;99.90;;;;;;10349596;28;20694;-69
2023/01/20 15:38:44;;;;;;;8.70;6.63;;;4.50;99.90;;;;;;10347790;28;20227;-70
2023/01/20 15:43:45;;;;;;;10.93;6.53;;;4.50;99.90;;;;;;10363141;28;20228;-69
2023/01/20 15:48:46;;;;;;;11.03;6.87;;;4.50;99.90;;;;;;10364069;28;20287;-69
2023/01/20 15:53:48;;;;;;;10.23;7.53;;;4.50;99.90;;;;;;10365720;28;20826;-68
2023/01/20 15:58:51;;;;;;;10.80;7.37;;;4.50;99.90;;;;;;10363301;28;20276;-69
2023/01/20 16:03:53;;;;;;;17.03;10.53;;;4.50;99.90;;;;;;10355585;28;20240;-69
2023/01/20 16:08:54;;;;;;;14.00;9.40;;;4.50;99.90;;;;;;10360351;28;20209;-69
2023/01/20 16:13:58;;;;;;;13.47;8.57;;;4.40;99.90;;;;;;10330231;28;20282;-70
2023/01/20 16:19:00;;;;;;;11.50;7.83;;;4.40;99.90;;;;;;10352914;28;20233;-70
2023/01/20 16:24:00;;;;;;;10.97;7.43;;;4.30;99.90;;;;;;10357530;28;20221;-72
2023/01/20 16:29:03;;;;;;;12.77;7.10;;;4.30;99.90;;;;;;10364430;28;20966;-70
2023/01/20 16:34:04;;;;;;;11.63;7.27;;;4.20;99.90;;;;;;10362084;28;20229;-69
2023/01/20 16:39:04;;;;;;;10.37;7.70;;;4.20;99.90;;;;;;10364444;28;20231;-70
2023/01/20 16:44:05;;;;;;;11.33;7.57;;;4.20;99.90;;;;;;10338595;28;20233;-70
2023/01/20 16:49:07;;;;;;;10.43;7.47;;;4.10;99.90;;;;;;10365219;28;20221;-72
2023/01/20 16:54:08;;;;;;;15.43;8.40;;;4.00;99.90;;;;;;10369567;28;20260;-70
2023/01/20 16:59:09;;;;;;;11.10;7.93;;;3.90;99.90;;;;;;10371587;28;20222;-69
2023/01/20 17:04:09;;;;;;;10.63;8.10;;;3.80;99.90;;;;;;10369891;28;20295;-71
2023/01/20 17:09:10;;;;;;;16.10;9.17;;;3.70;99.90;;;;;;10370536;28;20262;-73
2023/01/20 17:14:11;;;;;;;12.47;8.67;;;3.60;99.90;;;;;;10354037;28;20229;-71
2023/01/20 17:19:12;;;;;;;18.90;10.27;;;3.60;99.90;;;;;;10367865;28;20604;-72
2023/01/20 17:24:12;;;;;;;13.63;9.57;;;3.70;99.90;;;;;;10365626;28;20229;-71
2023/01/20 17:29:13;;;;;;;12.83;9.23;;;3.80;99.90;;;;;;10360085;28;20284;-72
2023/01/20 17:34:13;;;;;;;14.23;9.50;;;3.90;99.90;;;;;;10358931;28;20287;-70
2023/01/20 17:39:14;;;;;;;10.53;7.20;;;3.90;99.90;;;;;;10349102;28;20656;-72
2023/01/20 17:44:17;;;;;;;10.00;7.40;;;3.90;99.90;;;;;;10346128;28;20751;-71
2023/01/20 17:49:18;;;;;;;10.97;7.63;;;3.70;99.90;;;;;;10351904;28;20308;-72
2023/01/20 17:54:18;;;;;;;10.77;7.93;;;3.60;99.90;;;;;;10350274;28;20667;-72
2023/01/20 17:59:19;;;;;;;9.70;7.87;;;3.50;99.90;;;;;;10346209;28;20221;-70
2023/01/20 18:04:20;;;;;;;10.33;8.03;;;3.30;99.90;;;;;;10353133;28;20221;-70
2023/01/20 18:09:21;;;;;;;10.63;7.40;;;3.20;99.90;;;;;;10357838;28;20249;-71
2023/01/20 18:14:21;;;;;;;13.13;7.90;;;3.20;99.90;;;;;;10344463;28;20242;-70
2023/01/20 18:19:22;;;;;;;9.30;6.67;;;3.20;99.90;;;;;;10352491;28;20232;-70
2023/01/20 18:24:23;;;;;;;10.13;6.17;;;3.20;99.90;;;;;;10349827;28;20704;-71
2023/01/20 18:29:23;;;;;;;5.77;5.17;;;3.20;99.90;;;;;;10364323;28;20224;-70
2023/01/20 18:34:24;;;;;;;6.43;5.40;;;3.20;99.90;;;;;;10357182;28;20394;-71
2023/01/20 18:39:25;;;;;;;6.47;4.97;;;3.20;99.90;;;;;;10347224;28;20269;-68
2023/01/20 18:44:26;;;;;;;7.23;5.43;;;3.20;99.90;;;;;;10353863;28;20725;-72
2023/01/20 18:49:27;;;;;;;5.07;4.57;;;3.20;99.90;;;;;;10359927;28;20220;-72
2023/01/20 18:54:31;;;;;;;7.37;5.87;;;3.10;99.90;;;;;;10333422;28;20215;-73
2023/01/20 18:59:32;;;;;;;8.87;5.77;;;3.10;99.90;;;;;;10349269;28;20219;-74
2023/01/20 19:04:34;;;;;;;10.60;6.80;;;3.10;99.90;;;;;;10333236;28;20219;-70
2023/01/20 19:09:35;;;;;;;10.77;8.33;;;3.00;99.90;;;;;;10344379;28;20274;-70
2023/01/20 19:14:35;;;;;;;10.73;7.77;;;2.90;99.90;;;;;;10340918;28;20277;-70
2023/01/20 19:19:36;;;;;;;8.23;6.87;;;2.90;99.90;;;;;;10326873;28;20221;-72
2023/01/20 19:24:36;;;;;;;8.97;6.90;;;2.80;99.90;;;;;;10349399;28;20643;-72
2023/01/20 19:29:39;;;;;;;12.27;7.73;;;2.70;99.90;;;;;;10346945;28;20256;-74
2023/01/20 19:34:43;;;;;;;9.20;7.07;;;2.60;99.90;;;;;;10350864;28;20210;-75
2023/01/20 19:39:44;;;;;;;9.07;7.37;;;2.60;99.90;;;;;;10351423;28;20217;-70
2023/01/20 19:44:44;;;;;;;10.17;7.90;;;2.50;99.90;;;;;;10348618;28;20219;-72
2023/01/20 19:49:45;;;;;;;10.43;8.13;;;2.40;99.90;;;;;;10337462;28;20414;-71
2023/01/20 19:54:46;;;;;;;12.03;9.10;;;2.40;99.90;;;;;;10331563;28;20727;-68
2023/01/20 19:59:46;;;;;;;12.13;9.50;;;2.30;99.90;;;;;;10364346;28;20258;-72
2023/01/20 20:04:47;;;;;;;12.03;9.57;;;2.40;99.90;;;;;;10346905;28;20214;-72
2023/01/20 20:09:47;;;;;;;10.60;8.97;;;2.40;99.90;;;;;;10350217;28;20221;-69
2023/01/20 20:14:48;;;;;;;11.53;9.23;;;2.40;99.90;;;;;;10352027;28;20637;-70
2023/01/20 20:19:48;;;;;;;11.70;7.67;;;2.40;99.90;;;;;;10366619;28;20726;-71
2023/01/20 20:24:49;;;;;;;9.40;7.50;;;2.40;99.90;;;;;;10345236;28;20704;-71
2023/01/20 20:29:49;;;;;;;9.77;7.80;;;2.30;99.90;;;;;;10337920;28;20213;-70
2023/01/20 20:34:50;;;;;;;9.77;8.43;;;2.20;99.90;;;;;;10336036;28;20224;-72
2023/01/20 20:39:51;;;;;;;9.93;8.43;;;2.30;99.90;;;;;;10347752;28;20256;-71
2023/01/20 20:44:51;;;;;;;10.73;8.23;;;2.20;99.90;;;;;;10353377;28;20228;-71
2023/01/20 20:49:52;;;;;;;10.77;9.07;;;2.10;99.90;;;;;;10359127;28;20258;-71
2023/01/20 20:54:54;;;;;;;14.63;11.30;;;2.00;99.90;;;;;;10341235;28;20219;-71
2023/01/20 20:59:56;;;;;;;17.40;12.30;;;2.00;99.90;;;;;;10342339;28;20214;-71
2023/01/20 21:04:57;;;;;;;15.80;11.33;;;1.90;99.90;;;;;;10357722;28;20234;-71
2023/01/20 21:09:57;;;;;;;14.83;11.03;;;2.00;99.90;;;;;;10348498;28;20218;-71
2023/01/20 21:14:58;;;;;;;12.73;10.07;;;2.00;99.90;;;;;;10359738;28;20217;-70
2023/01/20 21:19:58;;;;;;;11.13;8.93;;;1.90;99.90;;;;;;10346898;28;20213;-71
2023/01/20 21:24:59;;;;;;;13.60;9.57;;;1.90;99.90;;;;;;10346807;28;20747;-72
2023/01/20 21:29:59;;;;;;;13.13;9.50;;;1.90;99.90;;;;;;10342078;28;20218;-71
2023/01/20 21:35:00;;;;;;;14.77;9.53;;;1.90;99.90;;;;;;10323824;28;20263;-72
2023/01/20 21:40:01;;;;;;;17.07;12.23;;;1.80;99.90;;;;;;10351751;28;20240;-71
2023/01/20 21:45:02;;;;;;;14.83;10.73;;;1.80;99.90;;;;;;10338148;28;20647;-71
2023/01/20 21:55:23;;;;;;;20.17;13.27;;;1.60;99.90;;;;;;10350565;28;20697;-75
2023/01/20 22:00:23;;;;;;;25.70;17.30;;;1.60;99.90;;;;;;10342829;28;20287;-71
2023/01/20 22:05:24;;;;;;;38.13;21.27;;;1.80;99.90;;;;;;10330765;28;20715;-72
2023/01/20 22:10:24;;;;;;;37.27;23.17;;;1.80;99.90;;;;;;10349422;28;20229;-72
2023/01/20 22:15:25;;;;;;;48.03;26.80;;;1.90;99.90;;;;;;10343132;28;20256;-72
2023/01/20 22:20:28;;;;;;;39.07;25.60;;;2.00;99.90;;;;;;10340907;28;20221;-71
2023/01/20 22:25:28;;;;;;;39.17;24.93;;;2.00;99.90;;;;;;10328233;28;20227;-71
2023/01/20 22:30:29;;;;;;;40.80;25.27;;;1.90;99.90;;;;;;10330330;28;20227;-72
2023/01/20 22:35:31;;;;;;;39.33;23.87;;;1.80;99.90;;;;;;10341234;28;20587;-73
2023/01/20 22:40:31;;;;;;;40.93;23.70;;;1.70;99.90;;;;;;10326798;28;20222;-70
2023/01/20 22:45:32;;;;;;;43.47;26.53;;;1.70;99.90;;;;;;10345583;28;20228;-70
2023/01/20 22:50:33;;;;;;;38.97;24.87;;;1.80;99.90;;;;;;10345321;28;20225;-70
2023/01/20 22:55:34;;;;;;;41.73;25.97;;;1.80;99.90;;;;;;10321353;28;20217;-72
2023/01/20 23:00:34;;;;;;;44.90;26.23;;;1.70;99.90;;;;;;10327144;28;20267;-71
2023/01/20 23:05:35;;;;;;;43.13;27.63;;;1.80;99.90;;;;;;10323415;28;20546;-70
2023/01/20 23:10:44;;;;;;;44.13;28.07;;;1.80;99.90;;;;;;10350568;28;20718;-70
2023/01/20 23:15:45;;;;;;;45.10;27.33;;;1.80;99.90;;;;;;10340796;28;20221;-77
2023/01/20 23:20:50;;;;;;;56.10;29.83;;;1.60;99.90;;;;;;10357453;28;20224;-72
2023/01/20 23:25:59;;;;;;;44.30;28.03;;;1.70;99.90;;;;;;10357872;28;20221;-74
2023/01/20 23:31:03;;;;;;;44.63;29.63;;;1.60;99.90;;;;;;10361440;28;20221;-77
2023/01/20 23:36:06;;;;;;;59.43;32.03;;;1.60;99.90;;;;;;10355701;28;20256;-71
2023/01/20 23:41:07;;;;;;;58.50;31.30;;;1.70;99.90;;;;;;10347727;28;20257;-74
2023/01/20 23:46:08;;;;;;;56.17;32.03;;;1.80;99.90;;;;;;10357501;28;20247;-70
2023/01/20 23:51:09;;;;;;;47.87;29.50;;;1.80;99.90;;;;;;10357121;28;20304;-71
2023/01/20 23:56:15;;;;;;;51.53;29.43;;;1.70;99.90;;;;;;10351903;28;20387;-71
